Terminal Aerodrome Forecast
Issued by NWS

Home | Current Version | Previous Version | Text Only | Print | Product List | Glossary On
Versions: 1 2 3 4 5 6 7 8 9 10 11 12 13 14 15 16 17 18 19 20 21 22 23 24 25 26 27 28 29 30
098
FTUS45 KPSR 171215 AAA
TAFPHX
TAF AMD
KPHX 171215Z 1712/1818 14010KT P6SM VCSH SCT050 OVC080
      TEMPO 1712/1715 VRB15G24KT 5SM -TSRA BR BKN050 OVC070CB
     FM172100 15010KT P6SM VCSH BKN060
     FM180200 VRB04KT P6SM SCT060 BKN080
     FM181000 09005KT P6SM SCT080=

USA.gov is the U.S. government's official web portal to all federal, state and local government web resources and services.